Time;durP1;ratioP1;P1;durP2;ratioP2;P2;SDS_P1;SDS_P2;PMS_P1;PMS_P2;Temp;Humidity;BMP_temperature;BMP_pressure;BME280_temperature;BME280_humidity;BME280_pressure;Samples;Min_cycle;Max_cycle;Signal;HPM_P1;HPM_P2
2022/02/04 00:24:46;;;;;;;2.03;1.93;;;;;;;;;;4202501;34;20530;-66
2022/02/04 00:27:18;;;;;;;1.92;1.75;;;;;;;;;;4204324;34;20128;-62
2022/02/04 00:29:54;;;;;;;1.80;1.70;;;;;;;;;;4191458;34;20220;-63
2022/02/04 00:32:23;;;;;;;1.85;1.70;;;;;;;;;;4164048;34;20106;-63
2022/02/04 00:34:56;;;;;;;2.10;1.95;;;;;;;;;;4176798;34;20130;-63
2022/02/04 00:37:40;;;;;;;1.75;1.65;;;;;;;;;;4176803;34;20122;-63
2022/02/04 00:40:14;;;;;;;1.90;1.80;;;;;;;;;;4176449;34;20157;-63
2022/02/04 00:42:40;;;;;;;1.80;1.70;;;;;;;;;;4176644;34;20130;-62
2022/02/04 00:45:24;;;;;;;2.15;1.98;;;;;;;;;;4176597;34;20117;-63
2022/02/04 00:47:58;;;;;;;1.90;1.80;;;;;;;;;;4176651;34;20101;-63
2022/02/04 00:50:31;;;;;;;1.90;1.80;;;;;;;;;;4176687;34;20122;-63
2022/02/04 00:53:15;;;;;;;2.22;2.03;;;;;;;;;;4176641;34;20533;-63
2022/02/04 00:55:49;;;;;;;2.17;1.98;;;;;;;;;;4176558;34;20099;-63
2022/02/04 01:28:25;;;;;;;2.40;2.20;;;;;;;;;;4178441;34;20126;-64
2022/02/04 01:30:53;;;;;;;2.40;2.20;;;;;;;;;;4165883;34;20118;-64
2022/02/04 01:33:19;;;;;;;2.67;2.30;;;;;;;;;;4178367;34;20451;-64
2022/02/04 01:35:45;;;;;;;2.42;2.22;;;;;;;;;;4178135;34;20102;-65
2022/02/04 01:38:11;;;;;;;2.50;2.30;;;;;;;;;;4176793;34;20659;-64
2022/02/04 01:40:37;;;;;;;2.65;2.00;;;;;;;;;;4178181;34;20114;-63
2022/02/04 01:43:04;;;;;;;2.12;2.00;;;;;;;;;;4178302;34;20478;-63
2022/02/04 01:45:30;;;;;;;6.32;5.00;;;;;;;;;;4178315;34;20278;-64
2022/02/04 01:47:56;;;;;;;1.50;1.40;;;;;;;;;;4178167;34;20203;-63
2022/02/04 01:50:24;;;;;;;1.70;1.60;;;;;;;;;;4178242;34;20138;-64
2022/02/04 01:52:50;;;;;;;2.08;1.87;;;;;;;;;;4178090;34;20114;-64
2022/02/04 01:55:16;;;;;;;1.67;1.58;;;;;;;;;;4176916;34;20122;-64
2022/02/04 01:57:42;;;;;;;1.87;1.77;;;;;;;;;;4176649;34;20202;-64
2022/02/04 02:00:09;;;;;;;2.15;1.92;;;;;;;;;;4178150;34;20210;-63
2022/02/04 02:02:35;;;;;;;2.00;1.90;;;;;;;;;;4176617;34;20095;-63
2022/02/04 02:05:02;;;;;;;2.10;1.90;;;;;;;;;;4176781;34;20095;-64
2022/02/04 02:07:29;;;;;;;1.92;1.83;;;;;;;;;;4178060;34;20128;-64
2022/02/04 02:12:28;;;;;;;2.17;1.98;;;;;;;;;;4176817;34;20106;-63
2022/02/04 02:15:10;;;;;;;2.10;1.90;;;;;;;;;;4176760;34;20126;-63
2022/02/04 02:44:32;;;;;;;3.78;3.40;;;;;;;;;;4177703;34;20133;-64
2022/02/04 02:47:24;;;;;;;2.70;2.50;;;;;;;;;;4177641;34;20230;-64
2022/02/04 02:52:40;;;;;;;3.10;2.80;;;;;;;;;;4177808;34;20105;-63
2022/02/04 02:57:53;;;;;;;3.33;2.90;;;;;;;;;;4177506;34;20110;-64
2022/02/04 03:03:07;;;;;;;3.08;2.80;;;;;;;;;;4176027;34;20131;-63
2022/02/04 03:05:33;;;;;;;2.90;2.60;;;;;;;;;;4176767;34;20486;-63
2022/02/04 03:07:59;;;;;;;3.08;2.78;;;;;;;;;;4176548;34;20455;-63
2022/02/04 03:10:25;;;;;;;3.25;2.95;;;;;;;;;;4177401;34;20133;-63
2022/02/04 03:12:53;;;;;;;3.00;2.70;;;;;;;;;;4177571;34;20121;-63
2022/02/04 03:15:20;;;;;;;2.90;2.60;;;;;;;;;;4177498;34;20511;-63
2022/02/04 03:17:50;;;;;;;2.58;2.37;;;;;;;;;;4164701;34;20745;-64
2022/02/04 03:20:17;;;;;;;2.87;2.58;;;;;;;;;;4177213;34;20222;-64
2022/02/04 03:22:46;;;;;;;2.85;2.55;;;;;;;;;;4177431;34;20114;-64
2022/02/04 03:25:14;;;;;;;2.70;2.50;;;;;;;;;;4177371;34;20129;-63
2022/02/04 03:27:46;;;;;;;2.72;2.53;;;;;;;;;;4177364;34;20101;-62
2022/02/04 03:30:21;;;;;;;2.70;2.50;;;;;;;;;;4177400;34;20534;-64
2022/02/04 03:32:52;;;;;;;2.85;2.53;;;;;;;;;;4177275;34;20440;-63
2022/02/04 03:35:21;;;;;;;2.97;2.67;;;;;;;;;;4177153;34;20095;-64
2022/02/04 03:37:49;;;;;;;2.90;2.60;;;;;;;;;;4177243;34;20121;-63
2022/02/04 03:40:15;;;;;;;3.00;2.70;;;;;;;;;;4164601;34;20149;-63
2022/02/04 03:42:41;;;;;;;2.90;2.60;;;;;;;;;;4177135;34;20118;-63
2022/02/04 03:45:07;;;;;;;4.12;2.45;;;;;;;;;;4177120;34;20585;-62
2022/02/04 03:47:33;;;;;;;3.30;2.65;;;;;;;;;;4177196;34;20523;-66
2022/02/04 03:49:59;;;;;;;3.12;2.83;;;;;;;;;;4177494;34;20227;-63
2022/02/04 03:52:25;;;;;;;2.60;2.40;;;;;;;;;;4177133;34;20189;-63
2022/02/04 03:54:51;;;;;;;2.62;2.42;;;;;;;;;;4177082;34;20295;-61
2022/02/04 03:57:18;;;;;;;2.40;2.20;;;;;;;;;;4177099;34;20202;-60
2022/02/04 03:59:44;;;;;;;2.10;1.90;;;;;;;;;;4177085;34;20103;-61
2022/02/04 04:02:10;;;;;;;2.28;2.08;;;;;;;;;;4176920;34;20121;-61
2022/02/04 04:04:36;;;;;;;2.90;1.92;;;;;;;;;;4177119;34;20595;-63
2022/02/04 04:07:02;;;;;;;3.70;2.97;;;;;;;;;;4177085;34;20105;-64
2022/02/04 04:09:29;;;;;;;2.60;2.40;;;;;;;;;;4176623;34;20111;-63
2022/02/04 04:11:55;;;;;;;2.80;2.60;;;;;;;;;;4175414;34;20193;-62
2022/02/04 04:14:22;;;;;;;3.28;2.70;;;;;;;;;;4175485;34;20447;-62
2022/02/04 04:16:48;;;;;;;3.50;3.00;;;;;;;;;;4175478;34;20645;-61
2022/02/04 04:19:14;;;;;;;3.97;3.58;;;;;;;;;;4176404;34;20537;-61
2022/02/04 04:21:40;;;;;;;4.10;3.70;;;;;;;;;;4177055;34;20122;-62
2022/02/04 04:24:07;;;;;;;4.20;3.75;;;;;;;;;;4176913;34;20102;-62
2022/02/04 04:26:33;;;;;;;4.53;4.12;;;;;;;;;;4177036;34;20118;-62
2022/02/04 04:28:59;;;;;;;6.05;3.67;;;;;;;;;;4176856;34;20098;-62
2022/02/04 04:31:25;;;;;;;4.40;4.00;;;;;;;;;;4176670;34;20210;-62
2022/02/04 04:33:51;;;;;;;5.35;4.85;;;;;;;;;;4176694;34;20218;-62
2022/02/04 04:36:19;;;;;;;5.53;4.90;;;;;;;;;;4176620;34;20219;-61
2022/02/04 04:38:56;;;;;;;6.18;5.57;;;;;;;;;;4176511;34;20125;-60
2022/02/04 04:41:36;;;;;;;6.75;6.05;;;;;;;;;;4176588;34;20110;-60
2022/02/04 05:30:20;;;;;;;15.05;12.73;;;;;;;;;;4174015;34;20487;-60
2022/02/04 05:32:46;;;;;;;13.73;12.32;;;;;;;;;;4173996;34;20725;-60
2022/02/04 05:35:12;;;;;;;11.35;10.10;;;;;;;;;;4174092;34;20350;-59
2022/02/04 05:37:43;;;;;;;11.15;10.05;;;;;;;;;;4175661;34;20110;-60
2022/02/04 05:40:14;;;;;;;11.23;10.13;;;;;;;;;;4175716;34;20114;-60
2022/02/04 05:42:47;;;;;;;10.98;9.88;;;;;;;;;;4175898;34;20094;-60
2022/02/04 05:45:19;;;;;;;10.90;9.82;;;;;;;;;;4175771;34;20138;-59
2022/02/04 05:47:49;;;;;;;12.10;10.90;;;;;;;;;;4175821;34;20144;-60
2022/02/04 05:50:22;;;;;;;11.93;10.75;;;;;;;;;;4175954;34;20113;-60
2022/02/04 06:05:57;;;;;;;12.32;11.02;;;;;;;;;;4177961;34;20860;-59
2022/02/04 06:24:25;;;;;;;15.73;13.98;;;;;;;;;;4177752;34;20113;-59
2022/02/04 06:26:51;;;;;;;15.88;14.15;;;;;;;;;;4177843;34;20094;-59
2022/02/04 06:29:17;;;;;;;17.02;14.40;;;;;;;;;;4177848;34;20530;-59
2022/02/04 06:31:43;;;;;;;16.52;14.77;;;;;;;;;;4177708;34;20118;-59
2022/02/04 06:34:09;;;;;;;17.98;16.10;;;;;;;;;;4177904;34;20194;-59
2022/02/04 06:36:35;;;;;;;17.83;15.25;;;;;;;;;;4177631;34;20122;-59
2022/02/04 06:39:01;;;;;;;16.65;14.93;;;;;;;;;;4177309;34;20110;-59
2022/02/04 06:41:27;;;;;;;19.00;15.70;;;;;;;;;;4177246;34;20111;-59
2022/02/04 06:43:54;;;;;;;20.83;16.45;;;;;;;;;;4177262;34;20121;-59
2022/02/04 06:46:20;;;;;;;22.23;16.73;;;;;;;;;;4177643;34;20190;-59
2022/02/04 06:48:49;;;;;;;22.67;18.50;;;;;;;;;;4177483;34;20202;-59
2022/02/04 06:51:15;;;;;;;22.90;18.73;;;;;;;;;;4177471;34;20481;-59
2022/02/04 06:53:41;;;;;;;23.42;19.10;;;;;;;;;;4177523;34;20110;-59
2022/02/04 06:56:07;;;;;;;22.70;19.35;;;;;;;;;;4177511;34;20206;-59
2022/02/04 06:58:34;;;;;;;23.55;18.55;;;;;;;;;;4177319;34;20570;-59
2022/02/04 07:01:00;;;;;;;24.12;19.25;;;;;;;;;;4177316;34;20521;-59
2022/02/04 07:03:26;;;;;;;22.65;18.90;;;;;;;;;;4164637;34;20553;-59
2022/02/04 07:05:56;;;;;;;22.42;18.37;;;;;;;;;;4177372;34;20110;-59
2022/02/04 07:08:28;;;;;;;20.42;18.00;;;;;;;;;;4176775;34;20114;-59
2022/02/04 07:13:38;;;;;;;23.87;19.30;;;;;;;;;;4177184;34;20114;-59
2022/02/04 07:21:30;;;;;;;24.08;18.52;;;;;;;;;;4177178;34;20094;-59
2022/02/04 07:23:56;;;;;;;22.17;18.52;;;;;;;;;;4177152;34;20120;-59
2022/02/04 07:26:22;;;;;;;25.17;18.45;;;;;;;;;;4177380;34;20189;-59
2022/02/04 07:28:48;;;;;;;26.15;19.90;;;;;;;;;;4164519;34;20511;-59
2022/02/04 07:31:16;;;;;;;22.98;17.70;;;;;;;;;;4177107;34;20137;-59
2022/02/04 07:33:46;;;;;;;23.90;18.60;;;;;;;;;;4177621;34;20707;-59
2022/02/04 07:40:52;;;;;;;23.40;19.00;;;;;;;;;;4177021;34;20127;-59
2022/02/04 07:41:36;;;;;;;25.73;20.70;;;;;;;;;;4164548;34;20145;-59
2022/02/04 07:44:03;;;;;;;23.55;19.77;;;;;;;;;;4177096;34;20854;-59
2022/02/04 07:46:29;;;;;;;27.95;20.58;;;;;;;;;;4176769;34;20118;-58
2022/02/04 07:48:55;;;;;;;32.70;28.40;;;;;;;;;;4164089;34;20539;-60
2022/02/04 07:51:21;;;;;;;26.30;20.98;;;;;;;;;;4177220;34;20210;-60
2022/02/04 07:53:48;;;;;;;26.60;21.55;;;;;;;;;;4177009;34;20146;-60
2022/02/04 07:56:20;;;;;;;26.42;21.45;;;;;;;;;;4177097;34;20130;-59
2022/02/04 07:58:58;;;;;;;28.52;21.27;;;;;;;;;;4176944;34;20559;-59
2022/02/04 08:01:28;;;;;;;29.60;22.90;;;;;;;;;;4164022;34;20105;-59
2022/02/04 08:04:02;;;;;;;30.27;23.45;;;;;;;;;;4176863;34;20118;-59
2022/02/04 08:06:31;;;;;;;32.08;23.80;;;;;;;;;;4176900;34;20150;-59
2022/02/04 08:09:10;;;;;;;31.23;24.17;;;;;;;;;;4176730;34;20529;-60
2022/02/04 08:17:10;;;;;;;27.35;20.20;;;;;;;;;;4176824;34;20604;-60
2022/02/04 08:50:09;;;;;;;16.08;13.52;;;;;;;;;;4176021;34;20512;-61
2022/02/04 08:52:40;;;;;;;17.20;13.40;;;;;;;;;;4182069;34;20214;-61
2022/02/04 08:55:11;;;;;;;17.48;14.15;;;;;;;;;;4189678;34;20176;-61
2022/02/04 09:02:52;;;;;;;19.05;14.80;;;;;;;;;;4190672;34;20117;-68
2022/02/04 09:05:18;;;;;;;17.40;15.00;;;;;;;;;;4177952;34;20129;-70
2022/02/04 09:10:13;;;;;;;21.83;15.80;;;;;;;;;;4166030;34;20225;-68
2022/02/04 09:20:35;;;;;;;24.95;17.65;;;;;;;;;;4176962;34;20462;-65
2022/02/04 09:23:01;;;;;;;25.33;18.20;;;;;;;;;;4167096;34;20086;-66
2022/02/04 09:25:28;;;;;;;26.17;18.15;;;;;;;;;;4165558;34;20109;-58
2022/02/04 09:27:55;;;;;;;25.92;16.95;;;;;;;;;;4166099;34;20173;-59
2022/02/04 09:30:23;;;;;;;23.30;17.77;;;;;;;;;;4166297;34;20538;-60
2022/02/04 09:32:49;;;;;;;29.10;18.45;;;;;;;;;;4167457;34;20170;-61
2022/02/04 09:35:18;;;;;;;23.38;18.95;;;;;;;;;;4191915;34;20109;-61
2022/02/04 09:37:46;;;;;;;25.67;19.40;;;;;;;;;;4191518;34;20117;-62
2022/02/04 09:40:13;;;;;;;24.87;19.00;;;;;;;;;;4191039;34;20221;-61
2022/02/04 09:42:40;;;;;;;22.62;18.08;;;;;;;;;;4167964;34;20134;-62
2022/02/04 09:45:12;;;;;;;27.55;19.85;;;;;;;;;;4191306;34;20141;-61
2022/02/04 09:47:41;;;;;;;26.15;19.85;;;;;;;;;;4168014;34;20502;-62
2022/02/04 09:50:20;;;;;;;28.27;19.60;;;;;;;;;;4191973;34;20114;-62
2022/02/04 10:17:09;;;;;;;31.23;23.55;;;;;;;;;;4191305;34;20188;-59
2022/02/04 10:19:49;;;;;;;32.03;22.67;;;;;;;;;;4181414;34;20118;-60
2022/02/04 10:22:18;;;;;;;26.00;20.25;;;;;;;;;;4144816;34;20094;-58
2022/02/04 10:25:12;;;;;;;29.02;21.15;;;;;;;;;;4143209;34;20205;-59
2022/02/04 10:27:41;;;;;;;30.75;22.80;;;;;;;;;;4190976;34;20196;-58
2022/02/04 10:30:13;;;;;;;31.15;21.60;;;;;;;;;;4167848;34;20121;-58
2022/02/04 10:32:51;;;;;;;29.73;20.98;;;;;;;;;;4167333;34;20666;-58
2022/02/04 10:35:23;;;;;;;27.35;21.95;;;;;;;;;;4167112;34;20101;-59
2022/02/04 10:40:53;;;;;;;30.42;22.62;;;;;;;;;;4190415;34;20145;-59
2022/02/04 10:49:31;;;;;;;37.60;24.05;;;;;;;;;;4189295;34;20098;-59
2022/02/04 10:52:36;;;;;;;29.35;22.98;;;;;;;;;;4186409;34;20113;-60
2022/02/04 11:03:32;;;;;;;35.25;24.30;;;;;;;;;;4168300;34;20118;-59
2022/02/04 11:33:50;;;;;;;31.67;24.23;;;;;;;;;;4182175;34;20175;-60
2022/02/04 11:36:39;;;;;;;35.83;27.10;;;;;;;;;;4184931;34;20546;-58
2022/02/04 11:57:03;;;;;;;35.17;26.20;;;;;;;;;;4187964;34;20470;-60
2022/02/04 11:59:33;;;;;;;33.78;26.12;;;;;;;;;;4189644;34;20102;-60
2022/02/04 12:01:59;;;;;;;34.50;28.05;;;;;;;;;;4183066;34;20645;-59
2022/02/04 12:04:25;;;;;;;36.40;26.67;;;;;;;;;;4189742;34;20149;-59
2022/02/04 12:06:53;;;;;;;33.47;26.10;;;;;;;;;;4190135;34;20201;-60
2022/02/04 12:09:38;;;;;;;33.15;26.80;;;;;;;;;;4190009;34;20132;-59
2022/02/04 12:12:05;;;;;;;31.50;25.67;;;;;;;;;;4189450;34;20529;-60
2022/02/04 12:14:33;;;;;;;30.70;24.12;;;;;;;;;;4190259;34;20191;-60
2022/02/04 12:17:06;;;;;;;31.62;24.25;;;;;;;;;;4190363;34;20143;-59
2022/02/04 12:19:43;;;;;;;32.30;26.35;;;;;;;;;;4178720;34;20138;-60
2022/02/04 12:22:10;;;;;;;33.13;24.90;;;;;;;;;;4188890;34;20201;-60
2022/02/04 12:24:38;;;;;;;31.67;25.55;;;;;;;;;;4190607;34;20128;-60
2022/02/04 12:27:30;;;;;;;33.42;25.75;;;;;;;;;;4190587;34;20097;-60
2022/02/04 12:29:57;;;;;;;37.40;27.67;;;;;;;;;;4190456;34;20102;-60
2022/02/04 12:32:24;;;;;;;33.38;24.63;;;;;;;;;;4190478;34;20114;-60
2022/02/04 12:34:50;;;;;;;28.17;22.98;;;;;;;;;;4190465;34;20190;-59
2022/02/04 12:37:18;;;;;;;31.30;23.65;;;;;;;;;;4190494;34;20122;-59
2022/02/04 12:39:44;;;;;;;29.92;22.13;;;;;;;;;;4190180;34;20189;-59
2022/02/04 12:42:13;;;;;;;32.33;23.60;;;;;;;;;;4190437;34;20545;-60
2022/02/04 12:44:42;;;;;;;34.20;25.45;;;;;;;;;;4190267;34;20111;-59
2022/02/04 12:47:16;;;;;;;28.95;23.83;;;;;;;;;;4190368;34;20529;-59
2022/02/04 12:49:49;;;;;;;30.58;24.00;;;;;;;;;;4190355;34;20125;-59
2022/02/04 12:52:41;;;;;;;30.45;23.85;;;;;;;;;;4190221;34;20105;-60
2022/02/04 12:55:10;;;;;;;41.65;35.50;;;;;;;;;;4177277;34;20944;-60
2022/02/04 13:08:20;;;;;;;31.65;23.27;;;;;;;;;;4191794;34;20094;-60
2022/02/04 13:11:00;;;;;;;34.15;23.40;;;;;;;;;;4192056;34;20129;-59
2022/02/04 13:13:35;;;;;;;27.17;21.83;;;;;;;;;;4192208;34;20209;-61
2022/02/04 13:16:01;;;;;;;33.47;22.40;;;;;;;;;;4192193;34;20126;-61
2022/02/04 13:18:27;;;;;;;29.55;23.60;;;;;;;;;;4191996;34;20122;-59
2022/02/04 13:20:57;;;;;;;29.00;22.65;;;;;;;;;;4179087;34;20128;-61
2022/02/04 13:23:25;;;;;;;27.30;21.33;;;;;;;;;;4179551;34;20153;-61
2022/02/04 13:25:53;;;;;;;34.67;23.12;;;;;;;;;;4178922;34;20126;-60
2022/02/04 13:28:39;;;;;;;29.90;22.90;;;;;;;;;;4192076;34;20094;-59
2022/02/04 13:31:07;;;;;;;29.23;21.75;;;;;;;;;;4192093;34;20104;-60
2022/02/04 13:33:40;;;;;;;30.33;22.58;;;;;;;;;;4192229;34;20116;-60
2022/02/04 13:36:26;;;;;;;35.10;28.35;;;;;;;;;;4192007;34;20208;-61
2022/02/04 13:42:14;;;;;;;31.37;24.63;;;;;;;;;;4192176;34;20190;-60
2022/02/04 13:54:25;;;;;;;35.00;24.52;;;;;;;;;;4189041;34;20503;-61
2022/02/04 13:57:17;;;;;;;33.90;24.75;;;;;;;;;;4189265;34;20125;-61
2022/02/04 14:00:03;;;;;;;33.03;24.60;;;;;;;;;;4177904;34;20118;-61
2022/02/04 14:02:38;;;;;;;;;;;;;;;;;;4179960;34;20105;-60
2022/02/04 14:05:04;;;;;;;31.23;24.60;;;;;;;;;;4191594;34;19988;-61
2022/02/04 14:07:53;;;;;;;33.38;25.23;;;;;;;;;;4191129;34;20541;-58
2022/02/04 14:10:25;;;;;;;30.50;24.95;;;;;;;;;;4191543;34;20522;-59
2022/02/04 14:13:05;;;;;;;33.00;24.63;;;;;;;;;;4191417;34;20125;-59
2022/02/04 14:15:32;;;;;;;30.37;22.05;;;;;;;;;;4191202;34;20112;-60
2022/02/04 14:18:07;;;;;;;33.47;21.33;;;;;;;;;;4191601;34;20121;-59
2022/02/04 14:20:36;;;;;;;28.60;21.30;;;;;;;;;;4178398;34;20219;-60
2022/02/04 14:23:06;;;;;;;26.75;22.23;;;;;;;;;;4191323;34;20122;-60
2022/02/04 14:25:47;;;;;;;34.50;28.15;;;;;;;;;;4190963;34;20099;-60
2022/02/04 14:28:17;;;;;;;32.58;23.08;;;;;;;;;;4191318;34;20121;-60
2022/02/04 14:30:44;;;;;;;27.83;22.23;;;;;;;;;;4191238;34;20618;-60
2022/02/04 14:33:17;;;;;;;26.35;20.83;;;;;;;;;;4191208;34;20115;-60
2022/02/04 14:36:06;;;;;;;28.58;20.55;;;;;;;;;;4191157;34;20507;-60
2022/02/04 14:50:12;;;;;;;30.48;20.90;;;;;;;;;;4178462;34;20098;-60
2022/02/04 14:52:24;;;;;;;26.83;18.08;;;;;;;;;;4176830;34;20102;-61
2022/02/04 15:03:13;;;;;;;29.80;21.35;;;;;;;;;;4189140;34;20209;-59
2022/02/04 15:08:28;;;;;;;29.50;18.90;;;;;;;;;;4160780;34;20130;-60
2022/02/04 15:10:59;;;;;;;30.33;20.12;;;;;;;;;;4177010;34;20205;-60
2022/02/04 15:13:25;;;;;;;24.12;19.42;;;;;;;;;;4177234;34;20229;-64
2022/02/04 15:15:50;;;;;;;27.52;19.58;;;;;;;;;;4192504;34;20134;-61
2022/02/04 15:18:16;;;;;;;28.58;19.40;;;;;;;;;;4198463;34;20105;-62
2022/02/04 15:20:43;;;;;;;29.67;20.33;;;;;;;;;;4195374;34;20130;-62
2022/02/04 15:23:12;;;;;;;32.05;19.70;;;;;;;;;;4196300;34;20109;-61
2022/02/04 15:25:38;;;;;;;28.55;20.52;;;;;;;;;;4193790;34;20109;-63
2022/02/04 15:30:35;;;;;;;26.77;20.70;;;;;;;;;;4196694;34;20540;-60
2022/02/04 15:33:01;;;;;;;33.33;21.70;;;;;;;;;;4192363;34;20451;-60
2022/02/04 15:35:29;;;;;;;29.17;22.30;;;;;;;;;;4190537;34;20144;-60
2022/02/04 15:37:55;;;;;;;26.73;20.75;;;;;;;;;;4192420;34;20181;-66
2022/02/04 15:40:21;;;;;;;33.40;23.30;;;;;;;;;;4179261;34;20146;-60
2022/02/04 15:42:56;;;;;;;38.22;22.95;;;;;;;;;;4184365;34;20206;-57
2022/02/04 15:51:13;;;;;;;33.22;23.17;;;;;;;;;;4183683;34;20526;-60
2022/02/04 15:53:38;;;;;;;32.40;21.40;;;;;;;;;;4184853;34;20214;-72
2022/02/04 15:56:26;;;;;;;37.60;21.48;;;;;;;;;;4182840;34;20206;-60
2022/02/04 16:01:29;;;;;;;29.87;19.67;;;;;;;;;;4169718;34;20101;-59
2022/02/04 16:06:25;;;;;;;27.27;19.25;;;;;;;;;;4193831;34;20548;-59
2022/02/04 16:08:54;;;;;;;26.70;18.55;;;;;;;;;;4192279;34;20110;-59
2022/02/04 16:14:18;;;;;;;28.58;19.35;;;;;;;;;;4192200;34;20095;-62
2022/02/04 16:16:52;;;;;;;28.02;19.05;;;;;;;;;;4185980;34;20082;-61
2022/02/04 16:29:49;;;;;;;35.35;21.92;;;;;;;;;;4176567;34;20106;-63
2022/02/04 16:32:15;;;;;;;31.80;17.98;;;;;;;;;;4176841;34;20133;-62
2022/02/04 16:34:43;;;;;;;27.30;18.50;;;;;;;;;;4183987;34;20121;-64
2022/02/04 16:37:18;;;;;;;33.20;17.87;;;;;;;;;;4194795;34;20543;-63
2022/02/04 16:39:46;;;;;;;29.25;19.23;;;;;;;;;;4193470;34;20226;-63
2022/02/04 16:42:14;;;;;;;35.55;19.62;;;;;;;;;;4195004;34;20233;-63
2022/02/04 16:44:41;;;;;;;28.58;18.67;;;;;;;;;;4195558;34;20554;-63
2022/02/04 16:47:08;;;;;;;27.70;18.60;;;;;;;;;;4183635;34;20552;-63
2022/02/04 16:49:34;;;;;;;26.35;18.35;;;;;;;;;;4196639;34;20194;-64
2022/02/04 16:52:01;;;;;;;37.20;19.42;;;;;;;;;;4195382;34;20156;-64
2022/02/04 16:54:28;;;;;;;28.35;18.50;;;;;;;;;;4196195;34;20539;-64
2022/02/04 16:56:55;;;;;;;26.67;17.95;;;;;;;;;;4196479;34;20202;-63
2022/02/04 16:59:22;;;;;;;28.45;17.87;;;;;;;;;;4195432;34;20198;-63
2022/02/04 17:01:48;;;;;;;35.10;17.55;;;;;;;;;;4196262;34;20101;-62
2022/02/04 17:04:16;;;;;;;31.10;18.15;;;;;;;;;;4192456;34;20511;-62
2022/02/04 17:06:45;;;;;;;31.48;18.62;;;;;;;;;;4191455;34;20106;-61
2022/02/04 17:11:44;;;;;;;29.75;21.87;;;;;;;;;;4176438;34;20523;-62
2022/02/04 17:14:11;;;;;;;35.70;20.98;;;;;;;;;;4180481;34;20117;-62
2022/02/04 17:16:42;;;;;;;29.58;19.58;;;;;;;;;;4177141;34;20082;-62
2022/02/04 17:19:13;;;;;;;30.88;17.98;;;;;;;;;;4176200;34;20102;-62
2022/02/04 17:21:39;;;;;;;27.35;18.33;;;;;;;;;;4176280;34;20119;-62
2022/02/04 17:24:11;;;;;;;37.90;26.62;;;;;;;;;;4163528;34;20215;-63
2022/02/04 17:26:37;;;;;;;28.52;17.12;;;;;;;;;;4178134;34;20114;-60
2022/02/04 17:29:03;;;;;;;28.33;17.37;;;;;;;;;;4179349;34;20133;-63
2022/02/04 17:31:30;;;;;;;32.15;17.55;;;;;;;;;;4183470;34;20134;-65
2022/02/04 17:33:56;;;;;;;33.25;18.92;;;;;;;;;;4176052;34;20111;-63
2022/02/04 17:36:22;;;;;;;47.58;18.55;;;;;;;;;;4176281;34;20194;-64
2022/02/04 17:38:51;;;;;;;28.30;18.27;;;;;;;;;;4163409;34;20562;-69
2022/02/04 17:41:18;;;;;;;22.15;16.77;;;;;;;;;;4175909;34;20095;-63
2022/02/04 17:43:48;;;;;;;25.98;17.15;;;;;;;;;;4175885;34;20134;-63
2022/02/04 17:46:15;;;;;;;26.77;17.75;;;;;;;;;;4184005;34;20120;-62
2022/02/04 17:48:48;;;;;;;39.25;18.65;;;;;;;;;;4184308;34;20193;-63
2022/02/04 17:51:22;;;;;;;27.70;18.17;;;;;;;;;;4177384;34;20086;-62
2022/02/04 17:53:58;;;;;;;28.30;17.00;;;;;;;;;;4177530;34;20102;-62
2022/02/04 17:56:32;;;;;;;29.10;17.55;;;;;;;;;;4187002;34;20470;-61
2022/02/04 18:01:39;;;;;;;27.33;18.35;;;;;;;;;;4183607;34;20118;-63
2022/02/04 18:07:08;;;;;;;30.62;18.33;;;;;;;;;;4182512;34;20518;-61
2022/02/04 18:09:35;;;;;;;34.30;20.60;;;;;;;;;;4187181;34;20137;-60
2022/02/04 18:12:01;;;;;;;32.78;19.15;;;;;;;;;;4178080;34;20535;-65
2022/02/04 18:14:28;;;;;;;28.52;19.25;;;;;;;;;;4188109;34;20122;-61
2022/02/04 18:16:54;;;;;;;33.30;18.35;;;;;;;;;;4187919;34;20129;-59
2022/02/04 18:19:20;;;;;;;30.62;17.77;;;;;;;;;;4177571;34;20130;-60
2022/02/04 18:21:46;;;;;;;28.33;18.00;;;;;;;;;;4177906;34;20094;-60
2022/02/04 18:24:12;;;;;;;31.62;19.20;;;;;;;;;;4177707;34;20123;-60
2022/02/04 18:26:38;;;;;;;32.80;20.05;;;;;;;;;;4178071;34;20121;-59
2022/02/04 18:29:05;;;;;;;32.08;18.08;;;;;;;;;;4177666;34;20546;-59
2022/02/04 18:31:32;;;;;;;30.02;17.83;;;;;;;;;;4177819;34;20103;-60
2022/02/04 18:34:01;;;;;;;28.38;18.12;;;;;;;;;;4177680;34;20219;-60
2022/02/04 18:36:28;;;;;;;34.80;19.05;;;;;;;;;;4177706;34;20143;-60
2022/02/04 18:39:10;;;;;;;31.62;18.75;;;;;;;;;;4177746;34;20549;-60
2022/02/04 18:44:25;;;;;;;36.08;20.60;;;;;;;;;;4177452;34;20118;-61
2022/02/04 18:47:26;;;;;;;33.80;18.58;;;;;;;;;;4177722;34;20122;-60
2022/02/04 18:49:59;;;;;;;29.77;19.27;;;;;;;;;;4177543;34;20103;-60
2022/02/04 18:58:32;;;;;;;36.03;19.37;;;;;;;;;;4134594;34;20119;-61
2022/02/04 19:00:58;;;;;;;41.33;20.25;;;;;;;;;;4134370;34;20339;-61
2022/02/04 19:03:42;;;;;;;28.87;19.65;;;;;;;;;;4154623;34;20101;-60
2022/02/04 19:08:55;;;;;;;28.60;19.62;;;;;;;;;;4176382;34;20520;-61
2022/02/04 19:11:28;;;;;;;26.65;18.98;;;;;;;;;;4177529;34;20092;-61
2022/02/04 19:14:00;;;;;;;38.28;19.92;;;;;;;;;;4177518;34;20141;-60
2022/02/04 19:21:39;;;;;;;29.63;18.92;;;;;;;;;;4177177;34;20133;-60
2022/02/04 19:24:06;;;;;;;31.90;18.87;;;;;;;;;;4177280;34;20642;-60
2022/02/04 19:26:32;;;;;;;34.60;20.35;;;;;;;;;;4177398;34;20176;-60
2022/02/04 19:28:58;;;;;;;32.90;18.60;;;;;;;;;;4177330;34;20122;-60
2022/02/04 19:31:24;;;;;;;31.65;18.75;;;;;;;;;;4177381;34;20114;-61
2022/02/04 19:33:50;;;;;;;38.08;20.98;;;;;;;;;;4177258;34;20117;-60
2022/02/04 19:36:16;;;;;;;36.40;20.42;;;;;;;;;;4177213;34;20138;-60
2022/02/04 19:38:43;;;;;;;31.37;20.08;;;;;;;;;;4177304;34;20133;-60
2022/02/04 19:41:14;;;;;;;28.30;20.10;;;;;;;;;;4177087;34;20177;-60
2022/02/04 19:43:43;;;;;;;35.80;20.88;;;;;;;;;;4176986;34;20106;-61
2022/02/04 19:46:14;;;;;;;40.75;21.00;;;;;;;;;;4186905;34;20566;-61
2022/02/04 19:48:46;;;;;;;35.15;20.58;;;;;;;;;;4190810;34;20109;-61
2022/02/04 20:13:36;;;;;;;34.63;20.70;;;;;;;;;;4190810;34;20114;-61
2022/02/04 20:23:48;;;;;;;31.62;20.50;;;;;;;;;;4190575;34;20106;-60
2022/02/04 20:26:14;;;;;;;36.85;20.08;;;;;;;;;;4190552;34;20117;-59
2022/02/04 20:28:40;;;;;;;36.38;20.20;;;;;;;;;;4190600;34;20495;-60
2022/02/04 20:31:06;;;;;;;36.88;20.27;;;;;;;;;;4190421;34;20129;-61
2022/02/04 20:33:32;;;;;;;36.92;19.05;;;;;;;;;;4190588;34;20101;-60
2022/02/04 20:35:59;;;;;;;34.05;19.48;;;;;;;;;;4190394;34;20098;-60
2022/02/04 20:38:31;;;;;;;29.87;19.90;;;;;;;;;;4190444;34;20110;-60
2022/02/04 20:41:08;;;;;;;64.53;47.55;;;;;;;;;;4190325;34;20129;-60
2022/02/04 20:43:34;;;;;;;28.75;19.70;;;;;;;;;;4190504;34;20141;-61
2022/02/04 20:46:01;;;;;;;36.90;22.15;;;;;;;;;;4190218;34;20298;-61
2022/02/04 20:48:33;;;;;;;33.10;21.58;;;;;;;;;;4190434;34;20110;-61
2022/02/04 20:51:00;;;;;;;41.20;21.95;;;;;;;;;;4190230;34;20210;-61
2022/02/04 20:53:26;;;;;;;36.67;22.90;;;;;;;;;;4190388;34;20201;-61
2022/02/04 20:55:52;;;;;;;37.05;20.27;;;;;;;;;;4190148;34;20448;-61
2022/02/04 20:58:18;;;;;;;29.40;19.05;;;;;;;;;;4190375;34;20110;-60
2022/02/04 21:00:44;;;;;;;35.33;18.40;;;;;;;;;;4189983;34;20189;-60
2022/02/04 21:03:11;;;;;;;32.13;18.00;;;;;;;;;;4177437;34;20109;-60
2022/02/04 21:05:44;;;;;;;32.70;18.58;;;;;;;;;;4190062;34;20103;-60
2022/02/04 21:15:59;;;;;;;30.52;19.00;;;;;;;;;;4190016;34;20129;-60
2022/02/04 21:18:25;;;;;;;28.42;18.50;;;;;;;;;;4177447;34;20126;-60
2022/02/04 21:20:52;;;;;;;31.30;17.85;;;;;;;;;;4189921;34;20521;-60
2022/02/04 21:23:19;;;;;;;30.05;18.48;;;;;;;;;;4190016;34;20106;-59
2022/02/04 21:25:45;;;;;;;31.92;19.20;;;;;;;;;;4189782;34;20114;-60
2022/02/04 21:28:11;;;;;;;33.45;18.30;;;;;;;;;;4190964;34;20117;-60
2022/02/04 21:30:45;;;;;;;32.25;17.20;;;;;;;;;;4191894;34;20108;-60
2022/02/04 21:33:20;;;;;;;33.45;18.87;;;;;;;;;;4192039;34;20544;-60
2022/02/04 21:38:31;;;;;;;34.75;18.98;;;;;;;;;;4192001;34;20111;-60
2022/02/04 21:40:57;;;;;;;31.65;18.37;;;;;;;;;;4191766;34;20548;-60
2022/02/04 21:43:23;;;;;;;29.12;17.77;;;;;;;;;;4191957;34;20228;-60
2022/02/04 21:45:55;;;;;;;30.75;18.00;;;;;;;;;;4191728;34;20101;-60
2022/02/04 21:48:22;;;;;;;30.12;17.92;;;;;;;;;;4191978;34;20534;-60
2022/02/04 21:50:52;;;;;;;27.80;17.62;;;;;;;;;;4191805;34;20106;-60
2022/02/04 21:53:18;;;;;;;28.70;17.85;;;;;;;;;;4192120;34;20438;-60
2022/02/04 21:55:45;;;;;;;30.83;16.02;;;;;;;;;;4191916;34;20121;-60
2022/02/04 21:58:12;;;;;;;30.10;17.20;;;;;;;;;;4191874;34;20126;-60
2022/02/04 22:00:39;;;;;;;28.15;17.52;;;;;;;;;;4191671;34;20098;-60
2022/02/04 22:03:07;;;;;;;24.37;16.35;;;;;;;;;;4191796;34;20463;-60
2022/02/04 22:05:36;;;;;;;30.50;17.60;;;;;;;;;;4191675;34;20146;-60
2022/02/04 22:08:07;;;;;;;32.25;16.75;;;;;;;;;;4191772;34;20530;-60
2022/02/04 22:11:02;;;;;;;28.80;18.52;;;;;;;;;;4191860;34;20458;-61
2022/02/04 22:13:38;;;;;;;25.10;17.23;;;;;;;;;;4191779;34;20571;-61